sensor_id;sensor_type;location;lat;lon;timestamp;P1;durP1;ratioP1;P2;durP2;ratioP2
19691;SDS011;42748;50.016;19.890;2023-11-21T00:01:34;21.27;;;9.77;;
19691;SDS011;42748;50.016;19.890;2023-11-21T00:04:01;17.95;;;9.85;;
19691;SDS011;42748;50.016;19.890;2023-11-21T00:06:29;19.20;;;9.63;;
19691;SDS011;42748;50.016;19.890;2023-11-21T00:08:56;20.85;;;9.20;;
19691;SDS011;42748;50.016;19.890;2023-11-21T00:11:24;14.30;;;8.48;;
19691;SDS011;42748;50.016;19.890;2023-11-21T00:13:51;16.80;;;8.20;;
19691;SDS011;42748;50.016;19.890;2023-11-21T00:16:19;17.08;;;8.38;;
19691;SDS011;42748;50.016;19.890;2023-11-21T00:18:48;17.20;;;8.85;;
19691;SDS011;42748;50.016;19.890;2023-11-21T00:21:16;14.93;;;7.75;;
19691;SDS011;42748;50.016;19.890;2023-11-21T00:23:43;15.60;;;7.82;;
19691;SDS011;42748;50.016;19.890;2023-11-21T00:26:10;18.08;;;8.43;;
19691;SDS011;42748;50.016;19.890;2023-11-21T00:28:38;17.70;;;9.18;;
19691;SDS011;42748;50.016;19.890;2023-11-21T00:31:06;17.35;;;8.68;;
19691;SDS011;42748;50.016;19.890;2023-11-21T00:33:34;16.58;;;9.32;;
19691;SDS011;42748;50.016;19.890;2023-11-21T00:36:02;17.92;;;9.30;;
19691;SDS011;42748;50.016;19.890;2023-11-21T00:38:29;19.13;;;9.30;;
19691;SDS011;42748;50.016;19.890;2023-11-21T00:40:57;18.92;;;9.50;;
19691;SDS011;42748;50.016;19.890;2023-11-21T00:43:25;19.77;;;9.80;;
19691;SDS011;42748;50.016;19.890;2023-11-21T00:45:52;18.70;;;9.70;;
19691;SDS011;42748;50.016;19.890;2023-11-21T00:48:20;20.23;;;10.60;;
19691;SDS011;42748;50.016;19.890;2023-11-21T00:50:47;19.85;;;10.10;;
19691;SDS011;42748;50.016;19.890;2023-11-21T00:53:16;19.27;;;10.70;;
19691;SDS011;42748;50.016;19.890;2023-11-21T00:55:44;21.63;;;11.77;;
19691;SDS011;42748;50.016;19.890;2023-11-21T00:58:12;26.75;;;12.80;;
19691;SDS011;42748;50.016;19.890;2023-11-21T01:00:39;23.27;;;12.68;;
19691;SDS011;42748;50.016;19.890;2023-11-21T01:03:07;23.27;;;12.48;;
19691;SDS011;42748;50.016;19.890;2023-11-21T01:05:35;20.70;;;12.00;;
19691;SDS011;42748;50.016;19.890;2023-11-21T01:08:02;21.35;;;12.70;;
19691;SDS011;42748;50.016;19.890;2023-11-21T01:10:30;20.85;;;11.95;;
19691;SDS011;42748;50.016;19.890;2023-11-21T01:12:59;24.05;;;12.75;;
19691;SDS011;42748;50.016;19.890;2023-11-21T01:15:26;23.95;;;12.73;;
19691;SDS011;42748;50.016;19.890;2023-11-21T01:17:54;25.58;;;11.63;;
19691;SDS011;42748;50.016;19.890;2023-11-21T01:20:21;21.40;;;11.60;;
19691;SDS011;42748;50.016;19.890;2023-11-21T01:22:49;22.00;;;12.00;;
19691;SDS011;42748;50.016;19.890;2023-11-21T01:25:16;19.20;;;12.13;;
19691;SDS011;42748;50.016;19.890;2023-11-21T01:27:44;23.42;;;11.63;;
19691;SDS011;42748;50.016;19.890;2023-11-21T01:30:12;21.48;;;11.50;;
19691;SDS011;42748;50.016;19.890;2023-11-21T01:32:39;20.42;;;11.55;;
19691;SDS011;42748;50.016;19.890;2023-11-21T01:35:08;20.40;;;11.40;;
19691;SDS011;42748;50.016;19.890;2023-11-21T01:37:36;19.80;;;11.23;;
19691;SDS011;42748;50.016;19.890;2023-11-21T01:40:05;24.45;;;10.93;;
19691;SDS011;42748;50.016;19.890;2023-11-21T01:42:36;18.70;;;10.77;;
19691;SDS011;42748;50.016;19.890;2023-11-21T01:45:04;20.25;;;10.32;;
19691;SDS011;42748;50.016;19.890;2023-11-21T01:47:32;19.95;;;10.45;;
19691;SDS011;42748;50.016;19.890;2023-11-21T01:50:01;16.58;;;10.25;;
19691;SDS011;42748;50.016;19.890;2023-11-21T01:52:31;17.02;;;9.77;;
19691;SDS011;42748;50.016;19.890;2023-11-21T01:54:58;18.48;;;9.50;;
19691;SDS011;42748;50.016;19.890;2023-11-21T01:57:26;17.15;;;9.82;;
19691;SDS011;42748;50.016;19.890;2023-11-21T01:59:54;17.95;;;10.45;;
19691;SDS011;42748;50.016;19.890;2023-11-21T02:02:21;19.88;;;9.65;;
19691;SDS011;42748;50.016;19.890;2023-11-21T02:04:49;17.25;;;8.75;;
19691;SDS011;42748;50.016;19.890;2023-11-21T02:07:17;15.48;;;9.35;;
19691;SDS011;42748;50.016;19.890;2023-11-21T02:09:46;16.20;;;9.07;;
19691;SDS011;42748;50.016;19.890;2023-11-21T02:12:14;18.00;;;9.52;;
19691;SDS011;42748;50.016;19.890;2023-11-21T02:14:42;18.30;;;8.95;;
19691;SDS011;42748;50.016;19.890;2023-11-21T02:17:11;15.75;;;8.77;;
19691;SDS011;42748;50.016;19.890;2023-11-21T02:19:39;16.27;;;8.23;;
19691;SDS011;42748;50.016;19.890;2023-11-21T02:22:07;16.67;;;8.93;;
19691;SDS011;42748;50.016;19.890;2023-11-21T02:24:35;19.23;;;9.40;;
19691;SDS011;42748;50.016;19.890;2023-11-21T02:27:03;18.13;;;9.05;;
19691;SDS011;42748;50.016;19.890;2023-11-21T02:29:31;17.88;;;8.63;;
19691;SDS011;42748;50.016;19.890;2023-11-21T02:31:58;17.35;;;8.90;;
19691;SDS011;42748;50.016;19.890;2023-11-21T02:34:26;19.13;;;9.00;;
19691;SDS011;42748;50.016;19.890;2023-11-21T02:36:53;16.05;;;9.00;;
19691;SDS011;42748;50.016;19.890;2023-11-21T02:39:22;16.10;;;8.70;;
19691;SDS011;42748;50.016;19.890;2023-11-21T02:41:51;16.80;;;8.00;;
19691;SDS011;42748;50.016;19.890;2023-11-21T02:44:18;15.77;;;8.07;;
19691;SDS011;42748;50.016;19.890;2023-11-21T02:46:46;16.02;;;8.45;;
19691;SDS011;42748;50.016;19.890;2023-11-21T02:49:14;17.83;;;8.00;;
19691;SDS011;42748;50.016;19.890;2023-11-21T02:51:42;14.30;;;8.02;;
19691;SDS011;42748;50.016;19.890;2023-11-21T02:54:11;19.55;;;8.57;;
19691;SDS011;42748;50.016;19.890;2023-11-21T02:56:38;17.40;;;8.30;;
19691;SDS011;42748;50.016;19.890;2023-11-21T02:59:09;14.18;;;7.78;;
19691;SDS011;42748;50.016;19.890;2023-11-21T03:01:36;12.25;;;6.68;;
19691;SDS011;42748;50.016;19.890;2023-11-21T03:04:04;12.40;;;7.22;;
19691;SDS011;42748;50.016;19.890;2023-11-21T03:06:32;13.95;;;7.35;;
19691;SDS011;42748;50.016;19.890;2023-11-21T03:09:00;13.77;;;6.72;;
19691;SDS011;42748;50.016;19.890;2023-11-21T03:11:27;14.43;;;7.10;;
19691;SDS011;42748;50.016;19.890;2023-11-21T03:13:55;13.95;;;7.30;;
19691;SDS011;42748;50.016;19.890;2023-11-21T03:16:22;15.50;;;7.60;;
19691;SDS011;42748;50.016;19.890;2023-11-21T03:18:50;12.73;;;6.72;;
19691;SDS011;42748;50.016;19.890;2023-11-21T03:21:19;16.42;;;7.03;;
19691;SDS011;42748;50.016;19.890;2023-11-21T03:23:46;13.30;;;7.13;;
19691;SDS011;42748;50.016;19.890;2023-11-21T03:26:14;11.63;;;6.68;;
19691;SDS011;42748;50.016;19.890;2023-11-21T03:28:41;14.23;;;6.65;;
19691;SDS011;42748;50.016;19.890;2023-11-21T03:31:09;17.38;;;7.60;;
19691;SDS011;42748;50.016;19.890;2023-11-21T03:33:37;15.27;;;6.50;;
19691;SDS011;42748;50.016;19.890;2023-11-21T03:36:04;13.02;;;6.82;;
19691;SDS011;42748;50.016;19.890;2023-11-21T03:38:34;14.55;;;6.97;;
19691;SDS011;42748;50.016;19.890;2023-11-21T03:41:01;13.95;;;6.55;;
19691;SDS011;42748;50.016;19.890;2023-11-21T03:43:29;14.73;;;6.63;;
19691;SDS011;42748;50.016;19.890;2023-11-21T03:45:56;11.30;;;6.45;;
19691;SDS011;42748;50.016;19.890;2023-11-21T03:48:24;12.63;;;6.15;;
19691;SDS011;42748;50.016;19.890;2023-11-21T03:50:51;13.30;;;6.63;;
19691;SDS011;42748;50.016;19.890;2023-11-21T03:53:19;11.90;;;6.57;;
19691;SDS011;42748;50.016;19.890;2023-11-21T03:55:46;14.88;;;7.03;;
19691;SDS011;42748;50.016;19.890;2023-11-21T03:58:14;12.10;;;6.32;;
19691;SDS011;42748;50.016;19.890;2023-11-21T04:00:41;15.70;;;7.00;;
19691;SDS011;42748;50.016;19.890;2023-11-21T04:03:09;12.10;;;6.57;;
19691;SDS011;42748;50.016;19.890;2023-11-21T04:05:37;14.55;;;6.97;;
19691;SDS011;42748;50.016;19.890;2023-11-21T04:08:04;16.63;;;8.00;;
19691;SDS011;42748;50.016;19.890;2023-11-21T04:10:31;13.05;;;7.20;;
19691;SDS011;42748;50.016;19.890;2023-11-21T04:12:59;13.05;;;6.78;;
19691;SDS011;42748;50.016;19.890;2023-11-21T04:15:26;14.15;;;6.88;;
19691;SDS011;42748;50.016;19.890;2023-11-21T04:17:54;16.23;;;7.32;;
19691;SDS011;42748;50.016;19.890;2023-11-21T04:20:23;13.05;;;7.05;;
19691;SDS011;42748;50.016;19.890;2023-11-21T04:22:50;16.08;;;7.53;;
19691;SDS011;42748;50.016;19.890;2023-11-21T04:25:18;16.13;;;7.75;;
19691;SDS011;42748;50.016;19.890;2023-11-21T04:27:45;15.63;;;7.15;;
19691;SDS011;42748;50.016;19.890;2023-11-21T04:30:14;16.30;;;7.03;;
19691;SDS011;42748;50.016;19.890;2023-11-21T04:32:41;16.25;;;7.70;;
19691;SDS011;42748;50.016;19.890;2023-11-21T04:35:09;15.57;;;8.35;;
19691;SDS011;42748;50.016;19.890;2023-11-21T04:37:37;15.02;;;8.57;;
19691;SDS011;42748;50.016;19.890;2023-11-21T04:40:04;14.45;;;7.53;;
19691;SDS011;42748;50.016;19.890;2023-11-21T04:42:34;16.90;;;8.27;;
19691;SDS011;42748;50.016;19.890;2023-11-21T04:45:04;18.08;;;8.27;;
19691;SDS011;42748;50.016;19.890;2023-11-21T04:47:33;15.15;;;7.95;;
19691;SDS011;42748;50.016;19.890;2023-11-21T04:50:02;13.85;;;7.82;;
19691;SDS011;42748;50.016;19.890;2023-11-21T04:52:29;13.10;;;7.68;;
19691;SDS011;42748;50.016;19.890;2023-11-21T04:54:57;18.20;;;8.40;;
19691;SDS011;42748;50.016;19.890;2023-11-21T04:57:25;17.23;;;8.40;;
19691;SDS011;42748;50.016;19.890;2023-11-21T04:59:52;21.70;;;9.77;;
19691;SDS011;42748;50.016;19.890;2023-11-21T05:02:20;18.55;;;9.18;;
19691;SDS011;42748;50.016;19.890;2023-11-21T05:05:01;20.65;;;10.05;;
19691;SDS011;42748;50.016;19.890;2023-11-21T05:07:29;21.90;;;10.13;;
19691;SDS011;42748;50.016;19.890;2023-11-21T05:09:58;20.35;;;10.05;;
19691;SDS011;42748;50.016;19.890;2023-11-21T05:12:26;22.23;;;10.15;;
19691;SDS011;42748;50.016;19.890;2023-11-21T05:14:53;19.73;;;9.80;;
19691;SDS011;42748;50.016;19.890;2023-11-21T05:17:21;16.27;;;9.48;;
19691;SDS011;42748;50.016;19.890;2023-11-21T05:19:49;21.67;;;10.13;;
19691;SDS011;42748;50.016;19.890;2023-11-21T05:22:17;21.30;;;10.20;;
19691;SDS011;42748;50.016;19.890;2023-11-21T05:24:44;21.67;;;10.48;;
19691;SDS011;42748;50.016;19.890;2023-11-21T05:27:12;24.58;;;10.75;;
19691;SDS011;42748;50.016;19.890;2023-11-21T05:29:40;18.38;;;10.07;;
19691;SDS011;42748;50.016;19.890;2023-11-21T05:32:07;21.92;;;10.48;;
19691;SDS011;42748;50.016;19.890;2023-11-21T05:34:35;24.63;;;10.80;;
19691;SDS011;42748;50.016;19.890;2023-11-21T05:37:03;24.70;;;11.32;;
19691;SDS011;42748;50.016;19.890;2023-11-21T05:39:31;23.48;;;10.50;;
19691;SDS011;42748;50.016;19.890;2023-11-21T05:41:59;29.30;;;12.05;;
19691;SDS011;42748;50.016;19.890;2023-11-21T05:44:26;26.38;;;11.88;;
19691;SDS011;42748;50.016;19.890;2023-11-21T05:46:54;25.00;;;12.43;;
19691;SDS011;42748;50.016;19.890;2023-11-21T05:49:21;26.02;;;12.15;;
19691;SDS011;42748;50.016;19.890;2023-11-21T05:51:49;24.70;;;12.32;;
19691;SDS011;42748;50.016;19.890;2023-11-21T05:54:16;28.77;;;12.43;;
19691;SDS011;42748;50.016;19.890;2023-11-21T05:56:44;27.08;;;12.23;;
19691;SDS011;42748;50.016;19.890;2023-11-21T05:59:11;28.15;;;13.40;;
19691;SDS011;42748;50.016;19.890;2023-11-21T06:01:39;26.48;;;13.13;;
19691;SDS011;42748;50.016;19.890;2023-11-21T06:04:06;29.75;;;13.25;;
19691;SDS011;42748;50.016;19.890;2023-11-21T06:06:37;36.33;;;13.98;;
19691;SDS011;42748;50.016;19.890;2023-11-21T06:09:05;28.60;;;13.18;;
19691;SDS011;42748;50.016;19.890;2023-11-21T06:11:38;28.88;;;14.32;;
19691;SDS011;42748;50.016;19.890;2023-11-21T06:14:06;31.70;;;13.93;;
19691;SDS011;42748;50.016;19.890;2023-11-21T06:16:35;28.52;;;13.63;;
19691;SDS011;42748;50.016;19.890;2023-11-21T06:19:03;28.15;;;13.00;;
19691;SDS011;42748;50.016;19.890;2023-11-21T06:21:31;29.50;;;13.77;;
19691;SDS011;42748;50.016;19.890;2023-11-21T06:24:00;25.30;;;12.23;;
19691;SDS011;42748;50.016;19.890;2023-11-21T06:26:27;26.60;;;12.48;;
19691;SDS011;42748;50.016;19.890;2023-11-21T06:28:55;26.13;;;12.93;;
19691;SDS011;42748;50.016;19.890;2023-11-21T06:31:23;24.38;;;11.77;;
19691;SDS011;42748;50.016;19.890;2023-11-21T06:33:51;23.90;;;11.32;;
19691;SDS011;42748;50.016;19.890;2023-11-21T06:36:19;24.98;;;11.95;;
19691;SDS011;42748;50.016;19.890;2023-11-21T06:38:47;23.10;;;12.38;;
19691;SDS011;42748;50.016;19.890;2023-11-21T06:41:14;21.67;;;11.88;;
19691;SDS011;42748;50.016;19.890;2023-11-21T06:43:42;20.70;;;11.88;;
19691;SDS011;42748;50.016;19.890;2023-11-21T06:46:13;24.52;;;12.88;;
19691;SDS011;42748;50.016;19.890;2023-11-21T06:48:45;25.73;;;13.88;;
19691;SDS011;42748;50.016;19.890;2023-11-21T06:51:13;24.45;;;12.98;;
19691;SDS011;42748;50.016;19.890;2023-11-21T06:53:40;23.98;;;13.50;;
19691;SDS011;42748;50.016;19.890;2023-11-21T06:56:15;28.88;;;13.95;;
19691;SDS011;42748;50.016;19.890;2023-11-21T06:58:44;27.42;;;13.27;;
19691;SDS011;42748;50.016;19.890;2023-11-21T07:01:12;25.95;;;12.50;;
19691;SDS011;42748;50.016;19.890;2023-11-21T07:03:40;22.55;;;12.93;;
19691;SDS011;42748;50.016;19.890;2023-11-21T07:06:08;27.45;;;13.30;;
19691;SDS011;42748;50.016;19.890;2023-11-21T07:08:35;23.25;;;11.98;;
19691;SDS011;42748;50.016;19.890;2023-11-21T07:11:03;25.17;;;12.85;;
19691;SDS011;42748;50.016;19.890;2023-11-21T07:13:31;22.63;;;12.45;;
19691;SDS011;42748;50.016;19.890;2023-11-21T07:15:59;25.30;;;13.30;;
19691;SDS011;42748;50.016;19.890;2023-11-21T07:18:26;23.45;;;12.25;;
19691;SDS011;42748;50.016;19.890;2023-11-21T07:20:54;24.52;;;12.32;;
19691;SDS011;42748;50.016;19.890;2023-11-21T07:23:21;25.70;;;12.40;;
19691;SDS011;42748;50.016;19.890;2023-11-21T07:25:49;23.88;;;13.05;;
19691;SDS011;42748;50.016;19.890;2023-11-21T07:28:17;24.55;;;12.82;;
19691;SDS011;42748;50.016;19.890;2023-11-21T07:30:44;24.55;;;12.55;;
19691;SDS011;42748;50.016;19.890;2023-11-21T07:33:11;25.40;;;13.55;;
19691;SDS011;42748;50.016;19.890;2023-11-21T07:35:39;26.30;;;13.20;;
19691;SDS011;42748;50.016;19.890;2023-11-21T07:38:06;23.88;;;12.95;;
19691;SDS011;42748;50.016;19.890;2023-11-21T07:40:34;25.48;;;13.55;;
19691;SDS011;42748;50.016;19.890;2023-11-21T07:43:01;27.17;;;13.18;;
19691;SDS011;42748;50.016;19.890;2023-11-21T07:45:29;24.08;;;12.93;;
19691;SDS011;42748;50.016;19.890;2023-11-21T07:47:56;29.55;;;13.20;;
19691;SDS011;42748;50.016;19.890;2023-11-21T07:50:25;25.63;;;13.75;;
19691;SDS011;42748;50.016;19.890;2023-11-21T07:52:53;29.25;;;14.25;;
19691;SDS011;42748;50.016;19.890;2023-11-21T07:55:21;28.00;;;14.38;;
19691;SDS011;42748;50.016;19.890;2023-11-21T07:57:48;30.77;;;15.80;;
19691;SDS011;42748;50.016;19.890;2023-11-21T08:00:16;33.67;;;17.40;;
19691;SDS011;42748;50.016;19.890;2023-11-21T08:02:43;30.48;;;17.67;;
19691;SDS011;42748;50.016;19.890;2023-11-21T08:05:12;32.53;;;18.08;;
19691;SDS011;42748;50.016;19.890;2023-11-21T08:07:50;40.42;;;19.08;;
19691;SDS011;42748;50.016;19.890;2023-11-21T08:10:18;34.17;;;19.65;;
19691;SDS011;42748;50.016;19.890;2023-11-21T08:12:47;35.92;;;19.05;;
19691;SDS011;42748;50.016;19.890;2023-11-21T08:15:15;35.75;;;19.23;;
19691;SDS011;42748;50.016;19.890;2023-11-21T08:17:42;37.22;;;18.50;;
19691;SDS011;42748;50.016;19.890;2023-11-21T08:20:11;33.25;;;17.77;;
19691;SDS011;42748;50.016;19.890;2023-11-21T08:22:38;28.13;;;15.88;;
19691;SDS011;42748;50.016;19.890;2023-11-21T08:25:07;30.30;;;16.10;;
19691;SDS011;42748;50.016;19.890;2023-11-21T08:27:35;27.15;;;14.60;;
19691;SDS011;42748;50.016;19.890;2023-11-21T08:30:03;31.42;;;15.73;;
19691;SDS011;42748;50.016;19.890;2023-11-21T08:32:30;27.70;;;14.48;;
19691;SDS011;42748;50.016;19.890;2023-11-21T08:35:00;30.38;;;15.63;;
19691;SDS011;42748;50.016;19.890;2023-11-21T08:37:28;28.55;;;15.73;;
19691;SDS011;42748;50.016;19.890;2023-11-21T08:39:59;27.05;;;15.32;;
19691;SDS011;42748;50.016;19.890;2023-11-21T08:42:28;28.75;;;14.60;;
19691;SDS011;42748;50.016;19.890;2023-11-21T08:44:57;29.67;;;14.32;;
19691;SDS011;42748;50.016;19.890;2023-11-21T08:47:24;26.63;;;14.60;;
19691;SDS011;42748;50.016;19.890;2023-11-21T08:49:53;26.45;;;13.95;;
19691;SDS011;42748;50.016;19.890;2023-11-21T08:52:21;30.55;;;14.23;;
19691;SDS011;42748;50.016;19.890;2023-11-21T08:54:49;28.45;;;14.05;;
19691;SDS011;42748;50.016;19.890;2023-11-21T08:57:25;27.00;;;14.95;;
19691;SDS011;42748;50.016;19.890;2023-11-21T08:59:52;30.17;;;14.35;;
19691;SDS011;42748;50.016;19.890;2023-11-21T09:02:22;26.80;;;14.15;;
19691;SDS011;42748;50.016;19.890;2023-11-21T09:04:52;27.88;;;14.48;;
19691;SDS011;42748;50.016;19.890;2023-11-21T09:07:19;29.00;;;15.57;;
19691;SDS011;42748;50.016;19.890;2023-11-21T09:09:47;33.22;;;16.77;;
19691;SDS011;42748;50.016;19.890;2023-11-21T09:12:16;31.88;;;16.10;;
19691;SDS011;42748;50.016;19.890;2023-11-21T09:14:46;28.17;;;14.38;;
19691;SDS011;42748;50.016;19.890;2023-11-21T09:17:16;28.70;;;15.80;;
19691;SDS011;42748;50.016;19.890;2023-11-21T09:19:44;29.08;;;16.60;;
19691;SDS011;42748;50.016;19.890;2023-11-21T09:22:16;28.85;;;16.05;;
19691;SDS011;42748;50.016;19.890;2023-11-21T09:24:44;28.73;;;15.65;;
19691;SDS011;42748;50.016;19.890;2023-11-21T09:27:12;28.55;;;15.05;;
19691;SDS011;42748;50.016;19.890;2023-11-21T09:29:40;29.60;;;15.95;;
19691;SDS011;42748;50.016;19.890;2023-11-21T09:32:07;30.40;;;16.35;;
19691;SDS011;42748;50.016;19.890;2023-11-21T09:34:40;33.95;;;16.50;;
19691;SDS011;42748;50.016;19.890;2023-11-21T09:37:10;29.90;;;15.20;;
19691;SDS011;42748;50.016;19.890;2023-11-21T09:39:38;27.00;;;16.13;;
19691;SDS011;42748;50.016;19.890;2023-11-21T09:42:13;30.67;;;16.00;;
19691;SDS011;42748;50.016;19.890;2023-11-21T09:47:39;32.08;;;16.48;;
19691;SDS011;42748;50.016;19.890;2023-11-21T09:50:07;29.45;;;15.48;;
19691;SDS011;42748;50.016;19.890;2023-11-21T09:55:20;28.48;;;15.32;;
19691;SDS011;42748;50.016;19.890;2023-11-21T09:57:48;28.77;;;16.17;;
19691;SDS011;42748;50.016;19.890;2023-11-21T10:00:16;32.33;;;16.70;;
19691;SDS011;42748;50.016;19.890;2023-11-21T10:02:44;30.08;;;16.42;;
19691;SDS011;42748;50.016;19.890;2023-11-21T10:05:13;28.50;;;15.43;;
19691;SDS011;42748;50.016;19.890;2023-11-21T10:07:42;28.45;;;14.90;;
19691;SDS011;42748;50.016;19.890;2023-11-21T10:10:11;29.15;;;14.95;;
19691;SDS011;42748;50.016;19.890;2023-11-21T10:12:38;26.92;;;13.48;;
19691;SDS011;42748;50.016;19.890;2023-11-21T10:15:07;25.85;;;13.45;;
19691;SDS011;42748;50.016;19.890;2023-11-21T10:17:35;26.05;;;14.02;;
19691;SDS011;42748;50.016;19.890;2023-11-21T10:20:12;25.60;;;13.43;;
19691;SDS011;42748;50.016;19.890;2023-11-21T10:22:40;28.65;;;13.65;;
19691;SDS011;42748;50.016;19.890;2023-11-21T10:25:09;25.05;;;13.10;;
19691;SDS011;42748;50.016;19.890;2023-11-21T10:27:37;27.60;;;12.48;;
19691;SDS011;42748;50.016;19.890;2023-11-21T10:30:09;25.75;;;12.05;;
19691;SDS011;42748;50.016;19.890;2023-11-21T10:32:38;25.20;;;12.18;;
19691;SDS011;42748;50.016;19.890;2023-11-21T10:35:07;20.63;;;11.20;;
19691;SDS011;42748;50.016;19.890;2023-11-21T10:37:39;21.00;;;11.48;;
19691;SDS011;42748;50.016;19.890;2023-11-21T10:40:08;24.25;;;11.77;;
19691;SDS011;42748;50.016;19.890;2023-11-21T10:42:41;23.13;;;11.07;;
19691;SDS011;42748;50.016;19.890;2023-11-21T10:45:09;23.38;;;10.82;;
19691;SDS011;42748;50.016;19.890;2023-11-21T10:47:43;19.52;;;10.93;;
19691;SDS011;42748;50.016;19.890;2023-11-21T10:50:11;22.02;;;11.00;;
19691;SDS011;42748;50.016;19.890;2023-11-21T10:52:39;21.13;;;11.73;;
19691;SDS011;42748;50.016;19.890;2023-11-21T10:55:16;19.92;;;11.25;;
19691;SDS011;42748;50.016;19.890;2023-11-21T10:57:46;21.58;;;11.70;;
19691;SDS011;42748;50.016;19.890;2023-11-21T11:00:16;21.13;;;10.18;;
19691;SDS011;42748;50.016;19.890;2023-11-21T11:02:53;23.60;;;10.85;;
19691;SDS011;42748;50.016;19.890;2023-11-21T11:05:22;22.15;;;11.15;;
19691;SDS011;42748;50.016;19.890;2023-11-21T11:07:50;20.77;;;10.52;;
19691;SDS011;42748;50.016;19.890;2023-11-21T11:10:27;19.85;;;10.48;;
19691;SDS011;42748;50.016;19.890;2023-11-21T11:12:56;21.17;;;11.07;;
19691;SDS011;42748;50.016;19.890;2023-11-21T11:15:25;20.73;;;10.65;;
19691;SDS011;42748;50.016;19.890;2023-11-21T11:17:53;21.67;;;11.00;;
19691;SDS011;42748;50.016;19.890;2023-11-21T11:20:26;20.73;;;11.82;;
19691;SDS011;42748;50.016;19.890;2023-11-21T11:28:15;23.63;;;11.35;;
19691;SDS011;42748;50.016;19.890;2023-11-21T11:33:34;19.58;;;11.20;;
19691;SDS011;42748;50.016;19.890;2023-11-21T11:38:34;21.25;;;10.60;;
19691;SDS011;42748;50.016;19.890;2023-11-21T11:41:03;22.60;;;10.40;;
19691;SDS011;42748;50.016;19.890;2023-11-21T11:43:31;19.60;;;9.73;;
19691;SDS011;42748;50.016;19.890;2023-11-21T11:46:11;18.38;;;9.02;;
19691;SDS011;42748;50.016;19.890;2023-11-21T11:48:39;19.48;;;9.73;;
19691;SDS011;42748;50.016;19.890;2023-11-21T11:51:11;21.02;;;10.20;;
19691;SDS011;42748;50.016;19.890;2023-11-21T11:53:41;15.52;;;8.27;;
19691;SDS011;42748;50.016;19.890;2023-11-21T11:56:22;14.88;;;7.32;;
19691;SDS011;42748;50.016;19.890;2023-11-21T11:58:53;14.52;;;7.50;;
19691;SDS011;42748;50.016;19.890;2023-11-21T12:01:22;13.95;;;7.00;;
19691;SDS011;42748;50.016;19.890;2023-11-21T12:06:36;12.38;;;7.00;;
19691;SDS011;42748;50.016;19.890;2023-11-21T12:09:03;11.55;;;6.05;;
19691;SDS011;42748;50.016;19.890;2023-11-21T12:11:31;12.50;;;6.65;;
19691;SDS011;42748;50.016;19.890;2023-11-21T12:13:59;14.73;;;7.18;;
19691;SDS011;42748;50.016;19.890;2023-11-21T12:16:27;14.90;;;6.88;;
19691;SDS011;42748;50.016;19.890;2023-11-21T12:18:55;15.13;;;7.03;;
19691;SDS011;42748;50.016;19.890;2023-11-21T12:21:22;13.93;;;7.78;;
19691;SDS011;42748;50.016;19.890;2023-11-21T12:23:50;13.10;;;7.72;;
19691;SDS011;42748;50.016;19.890;2023-11-21T12:26:18;13.95;;;7.47;;
19691;SDS011;42748;50.016;19.890;2023-11-21T12:28:51;13.95;;;7.57;;
19691;SDS011;42748;50.016;19.890;2023-11-21T12:31:25;16.27;;;8.45;;
19691;SDS011;42748;50.016;19.890;2023-11-21T12:33:53;23.73;;;10.18;;
19691;SDS011;42748;50.016;19.890;2023-11-21T12:36:21;14.38;;;7.63;;
19691;SDS011;42748;50.016;19.890;2023-11-21T12:38:49;14.93;;;8.35;;
19691;SDS011;42748;50.016;19.890;2023-11-21T12:41:16;15.32;;;8.70;;
19691;SDS011;42748;50.016;19.890;2023-11-21T12:43:43;18.33;;;8.95;;
19691;SDS011;42748;50.016;19.890;2023-11-21T12:46:11;16.10;;;8.52;;
19691;SDS011;42748;50.016;19.890;2023-11-21T12:48:41;20.13;;;10.52;;
19691;SDS011;42748;50.016;19.890;2023-11-21T12:51:14;17.90;;;9.90;;
19691;SDS011;42748;50.016;19.890;2023-11-21T12:53:43;20.40;;;9.90;;
19691;SDS011;42748;50.016;19.890;2023-11-21T12:56:11;19.77;;;9.50;;
19691;SDS011;42748;50.016;19.890;2023-11-21T12:58:39;16.48;;;9.25;;
19691;SDS011;42748;50.016;19.890;2023-11-21T13:01:08;19.48;;;10.15;;
19691;SDS011;42748;50.016;19.890;2023-11-21T13:03:38;18.02;;;9.73;;
19691;SDS011;42748;50.016;19.890;2023-11-21T13:06:07;18.77;;;10.02;;
19691;SDS011;42748;50.016;19.890;2023-11-21T13:08:34;16.95;;;9.88;;
19691;SDS011;42748;50.016;19.890;2023-11-21T13:11:05;20.85;;;9.65;;
19691;SDS011;42748;50.016;19.890;2023-11-21T13:13:33;17.67;;;9.40;;
19691;SDS011;42748;50.016;19.890;2023-11-21T13:16:01;17.35;;;10.07;;
19691;SDS011;42748;50.016;19.890;2023-11-21T13:18:32;18.35;;;9.02;;
19691;SDS011;42748;50.016;19.890;2023-11-21T13:21:04;18.98;;;10.77;;
19691;SDS011;42748;50.016;19.890;2023-11-21T13:23:41;18.50;;;9.77;;
19691;SDS011;42748;50.016;19.890;2023-11-21T13:26:09;19.80;;;10.07;;
19691;SDS011;42748;50.016;19.890;2023-11-21T13:28:37;17.65;;;9.90;;
19691;SDS011;42748;50.016;19.890;2023-11-21T13:31:08;17.38;;;10.10;;
19691;SDS011;42748;50.016;19.890;2023-11-21T13:33:38;19.50;;;10.43;;
19691;SDS011;42748;50.016;19.890;2023-11-21T13:36:07;17.58;;;9.98;;
19691;SDS011;42748;50.016;19.890;2023-11-21T13:38:35;18.85;;;10.70;;
19691;SDS011;42748;50.016;19.890;2023-11-21T13:41:08;21.27;;;11.50;;
19691;SDS011;42748;50.016;19.890;2023-11-21T13:43:37;18.80;;;11.27;;
19691;SDS011;42748;50.016;19.890;2023-11-21T13:46:04;22.05;;;12.15;;
19691;SDS011;42748;50.016;19.890;2023-11-21T13:48:50;22.70;;;11.95;;
19691;SDS011;42748;50.016;19.890;2023-11-21T13:51:23;23.17;;;12.48;;
19691;SDS011;42748;50.016;19.890;2023-11-21T13:54:05;21.05;;;12.40;;
19691;SDS011;42748;50.016;19.890;2023-11-21T13:56:36;21.20;;;12.85;;
19691;SDS011;42748;50.016;19.890;2023-11-21T13:59:06;22.58;;;12.70;;
19691;SDS011;42748;50.016;19.890;2023-11-21T14:01:55;23.67;;;12.57;;
19691;SDS011;42748;50.016;19.890;2023-11-21T14:04:24;22.85;;;12.80;;
19691;SDS011;42748;50.016;19.890;2023-11-21T14:06:52;21.90;;;12.90;;
19691;SDS011;42748;50.016;19.890;2023-11-21T14:09:22;25.48;;;13.18;;
19691;SDS011;42748;50.016;19.890;2023-11-21T14:11:52;25.33;;;13.32;;
19691;SDS011;42748;50.016;19.890;2023-11-21T14:14:21;23.48;;;12.90;;
19691;SDS011;42748;50.016;19.890;2023-11-21T14:16:48;27.20;;;14.57;;
19691;SDS011;42748;50.016;19.890;2023-11-21T14:19:16;24.50;;;12.88;;
19691;SDS011;42748;50.016;19.890;2023-11-21T14:21:44;26.35;;;14.30;;
19691;SDS011;42748;50.016;19.890;2023-11-21T14:24:12;28.13;;;14.88;;
19691;SDS011;42748;50.016;19.890;2023-11-21T14:26:43;26.17;;;14.63;;
19691;SDS011;42748;50.016;19.890;2023-11-21T14:29:12;24.58;;;15.00;;
19691;SDS011;42748;50.016;19.890;2023-11-21T14:31:42;25.90;;;14.32;;
19691;SDS011;42748;50.016;19.890;2023-11-21T14:34:10;28.25;;;15.68;;
19691;SDS011;42748;50.016;19.890;2023-11-21T14:36:38;28.25;;;14.65;;
19691;SDS011;42748;50.016;19.890;2023-11-21T14:39:06;28.48;;;14.88;;
19691;SDS011;42748;50.016;19.890;2023-11-21T14:41:37;24.67;;;14.98;;